Time;durP1;ratioP1;P1;durP2;ratioP2;P2;SDS_P1;SDS_P2;PMS_P1;PMS_P2;Temp;Humidity;BMP_temperature;BMP_pressure;BME280_temperature;BME280_humidity;BME280_pressure;Samples;Min_cycle;Max_cycle;Signal;HPM_P1;HPM_P2
2024/01/01 00:01:57;;;;;;;14.55;5.82;;;;;;;;;;5086181;28;20063;-69
2024/01/01 00:04:42;;;;;;;13.65;6.45;;;;;;;;;;5082409;28;20565;-70
2024/01/01 00:07:28;;;;;;;18.65;7.38;;;;;;;;;;5083598;28;20020;-69
2024/01/01 00:10:13;;;;;;;15.23;6.35;;;;;;;;;;5084933;28;20023;-70
2024/01/01 00:12:59;;;;;;;17.20;6.18;;;;;;;;;;5083212;28;20020;-70
2024/01/01 00:15:45;;;;;;;15.40;6.55;;;;;;;;;;5080845;28;20074;-71
2024/01/01 00:18:30;;;;;;;13.70;6.57;;;;;;;;;;5081612;28;20020;-71
2024/01/01 00:21:16;;;;;;;23.38;7.15;;;;;;;;;;5085829;28;20032;-70
2024/01/01 00:24:02;;;;;;;11.40;6.10;;;;;;;;;;5081802;28;20036;-69
2024/01/01 00:26:48;;;;;;;17.48;7.75;;;;;;;;;;5068114;28;20024;-70
2024/01/01 00:29:33;;;;;;;22.58;8.43;;;;;;;;;;5082348;28;20110;-70
2024/01/01 00:32:19;;;;;;;19.27;8.98;;;;;;;;;;5089890;28;20493;-71
2024/01/01 00:35:05;;;;;;;25.48;10.38;;;;;;;;;;5088257;28;20472;-69
2024/01/01 00:37:51;;;;;;;24.60;9.48;;;;;;;;;;5085763;28;20094;-70
2024/01/01 00:40:37;;;;;;;14.43;9.15;;;;;;;;;;5087209;28;20035;-70
2024/01/01 00:43:22;;;;;;;21.02;8.40;;;;;;;;;;5088191;28;20484;-70
2024/01/01 00:46:08;;;;;;;21.33;8.25;;;;;;;;;;5088800;28;20060;-70
2024/01/01 00:48:54;;;;;;;26.10;8.88;;;;;;;;;;5087023;28;20026;-70
2024/01/01 00:51:40;;;;;;;20.05;9.25;;;;;;;;;;5085296;28;20439;-70
2024/01/01 00:54:28;;;;;;;22.10;9.07;;;;;;;;;;5087878;28;20035;-71
2024/01/01 00:57:13;;;;;;;20.75;8.88;;;;;;;;;;5086288;28;20055;-72
2024/01/01 00:59:59;;;;;;;17.25;7.75;;;;;;;;;;5088894;28;20488;-72
2024/01/01 01:02:45;;;;;;;19.75;8.93;;;;;;;;;;5081823;28;20113;-72
2024/01/01 01:05:30;;;;;;;20.23;7.50;;;;;;;;;;5082670;28;20128;-70
2024/01/01 01:08:16;;;;;;;21.92;8.05;;;;;;;;;;5082847;28;20154;-73
2024/01/01 01:11:01;;;;;;;18.00;8.57;;;;;;;;;;5090084;28;20029;-72
2024/01/01 01:13:48;;;;;;;21.08;8.38;;;;;;;;;;5064482;28;20059;-72
2024/01/01 01:16:34;;;;;;;20.38;9.02;;;;;;;;;;5090256;28;20036;-71
2024/01/01 01:19:19;;;;;;;24.70;7.55;;;;;;;;;;5086911;28;20021;-70
2024/01/01 01:22:05;;;;;;;20.20;8.63;;;;;;;;;;5084752;28;20029;-71
2024/01/01 01:24:51;;;;;;;20.02;8.45;;;;;;;;;;5086975;28;20396;-70
2024/01/01 01:27:36;;;;;;;15.73;7.70;;;;;;;;;;5083834;28;20050;-71
2024/01/01 01:30:22;;;;;;;20.85;7.43;;;;;;;;;;5083812;28;20024;-71
2024/01/01 01:33:07;;;;;;;21.92;9.32;;;;;;;;;;5098691;28;20024;-69
2024/01/01 01:35:53;;;;;;;17.52;8.45;;;;;;;;;;5095921;28;20031;-70
2024/01/01 01:38:39;;;;;;;16.42;7.68;;;;;;;;;;5094865;28;20047;-69
2024/01/01 01:41:24;;;;;;;22.27;9.45;;;;;;;;;;5087913;28;20520;-70
2024/01/01 01:44:10;;;;;;;20.33;8.70;;;;;;;;;;5095694;28;20111;-70
2024/01/01 01:46:56;;;;;;;23.42;11.73;;;;;;;;;;5082072;28;20028;-70
2024/01/01 01:49:41;;;;;;;25.75;10.48;;;;;;;;;;5095165;28;20024;-70
2024/01/01 01:52:27;;;;;;;21.40;8.40;;;;;;;;;;5080937;28;20027;-70
2024/01/01 01:55:13;;;;;;;22.38;9.38;;;;;;;;;;5082324;23;20506;-69
2024/01/01 01:57:59;;;;;;;17.80;8.38;;;;;;;;;;5055421;28;20389;-69
2024/01/01 02:00:46;;;;;;;21.40;6.60;;;;;;;;;;5040022;28;20371;-69
2024/01/01 02:03:31;;;;;;;21.33;8.25;;;;;;;;;;5040113;28;20095;-69
2024/01/01 02:06:17;;;;;;;15.70;7.28;;;;;;;;;;5035051;28;20538;-69
2024/01/01 02:09:03;;;;;;;18.40;8.35;;;;;;;;;;5034668;28;20060;-69
2024/01/01 02:11:48;;;;;;;14.63;6.20;;;;;;;;;;5034415;28;20017;-69
2024/01/01 02:14:34;;;;;;;15.63;7.95;;;;;;;;;;5035720;28;20022;-69
2024/01/01 02:17:20;;;;;;;18.00;7.63;;;;;;;;;;5034273;28;20105;-68
2024/01/01 02:20:06;;;;;;;16.35;7.75;;;;;;;;;;5033714;28;20104;-69
2024/01/01 02:22:56;;;;;;;14.32;8.45;;;;;;;;;;5033692;28;20085;-69
2024/01/01 02:25:42;;;;;;;21.30;7.43;;;;;;;;;;5034389;28;20499;-69
2024/01/01 02:28:28;;;;;;;19.52;7.75;;;;;;;;;;5034992;28;20056;-69
2024/01/01 02:31:13;;;;;;;22.02;7.22;;;;;;;;;;5034525;28;20025;-69
2024/01/01 02:33:59;;;;;;;16.83;7.28;;;;;;;;;;5034431;28;20021;-69
2024/01/01 02:37:05;;;;;;;14.45;6.53;;;;;;;;;;5034475;28;20029;-69
2024/01/01 02:39:50;;;;;;;14.88;6.57;;;;;;;;;;5034095;28;20048;-66
2024/01/01 02:42:36;;;;;;;18.23;6.50;;;;;;;;;;5019148;28;20028;-69
2024/01/01 02:45:24;;;;;;;22.23;7.03;;;;;;;;;;5035113;28;20471;-68
2024/01/01 02:48:09;;;;;;;17.92;6.10;;;;;;;;;;5033208;28;20028;-69
2024/01/01 02:50:55;;;;;;;21.00;8.25;;;;;;;;;;5033441;28;20415;-69
2024/01/01 02:53:41;;;;;;;20.42;8.10;;;;;;;;;;5033232;28;20021;-69
2024/01/01 02:56:26;;;;;;;16.20;6.90;;;;;;;;;;5033579;28;20025;-69
2024/01/01 02:59:12;;;;;;;21.58;6.28;;;;;;;;;;5034533;28;20492;-69
2024/01/01 03:02:00;;;;;;;19.05;6.35;;;;;;;;;;5032437;28;20029;-69
2024/01/01 03:04:45;;;;;;;21.02;8.85;;;;;;;;;;5033313;28;20029;-69
2024/01/01 03:07:32;;;;;;;16.58;7.20;;;;;;;;;;5032315;28;20553;-69
2024/01/01 03:10:18;;;;;;;23.20;8.10;;;;;;;;;;5034107;28;20507;-69
2024/01/01 03:13:03;;;;;;;15.23;5.38;;;;;;;;;;5032783;28;20184;-69
2024/01/01 03:15:49;;;;;;;14.95;6.82;;;;;;;;;;5018313;28;20117;-69
2024/01/01 03:18:35;;;;;;;17.73;7.03;;;;;;;;;;5032759;28;20036;-69
2024/01/01 03:21:20;;;;;;;17.02;7.43;;;;;;;;;;5033240;28;20474;-69
2024/01/01 03:24:06;;;;;;;15.23;7.20;;;;;;;;;;5032951;28;20029;-68
2024/01/01 03:26:51;;;;;;;16.65;9.00;;;;;;;;;;5033886;28;20013;-69
2024/01/01 03:29:37;;;;;;;23.65;8.50;;;;;;;;;;5031542;28;20060;-69
2024/01/01 03:32:23;;;;;;;28.63;9.43;;;;;;;;;;5033460;28;20497;-69
2024/01/01 03:35:08;;;;;;;22.98;9.73;;;;;;;;;;5032431;28;20104;-69
2024/01/01 03:37:54;;;;;;;28.58;9.88;;;;;;;;;;5034368;28;20025;-69
2024/01/01 03:40:40;;;;;;;22.63;8.70;;;;;;;;;;5032654;28;20025;-69
2024/01/01 03:43:26;;;;;;;21.73;9.63;;;;;;;;;;5033082;28;20549;-69
2024/01/01 03:46:11;;;;;;;26.52;9.38;;;;;;;;;;5032934;28;20025;-68
2024/01/01 03:48:57;;;;;;;29.27;10.55;;;;;;;;;;5032744;28;20053;-69
2024/01/01 03:51:42;;;;;;;25.63;9.82;;;;;;;;;;5033470;28;20044;-69
2024/01/01 03:54:28;;;;;;;24.40;10.05;;;;;;;;;;5031297;28;20026;-68
2024/01/01 03:57:14;;;;;;;25.40;10.43;;;;;;;;;;5032571;28;20482;-69
2024/01/01 04:00:00;;;;;;;26.30;10.65;;;;;;;;;;5032597;28;20033;-69
2024/01/01 04:02:46;;;;;;;24.45;10.98;;;;;;;;;;5018070;28;20021;-69
2024/01/01 04:05:32;;;;;;;29.13;10.63;;;;;;;;;;5033530;28;20017;-69
2024/01/01 04:08:17;;;;;;;27.83;10.02;;;;;;;;;;5032883;28;20053;-67
2024/01/01 04:11:03;;;;;;;28.42;12.27;;;;;;;;;;5032207;28;20021;-69
2024/01/01 04:13:49;;;;;;;26.48;11.25;;;;;;;;;;5033525;28;20447;-69
2024/01/01 04:16:36;;;;;;;27.77;11.35;;;;;;;;;;5031365;28;20032;-68
2024/01/01 04:19:21;;;;;;;27.33;12.40;;;;;;;;;;5032809;28;20031;-69
2024/01/01 04:22:07;;;;;;;33.40;13.63;;;;;;;;;;5033551;28;20017;-69
2024/01/01 04:24:53;;;;;;;27.33;11.32;;;;;;;;;;5018526;28;20029;-69
2024/01/01 04:27:38;;;;;;;30.80;12.88;;;;;;;;;;5032927;28;20013;-69
2024/01/01 04:30:24;;;;;;;32.33;12.13;;;;;;;;;;5032196;28;20021;-69
2024/01/01 04:33:10;;;;;;;30.52;12.68;;;;;;;;;;5030868;28;20116;-69
2024/01/01 04:35:55;;;;;;;31.27;12.40;;;;;;;;;;5030971;28;20105;-69
2024/01/01 04:38:41;;;;;;;28.95;11.63;;;;;;;;;;5031981;28;20079;-68
2024/01/01 04:41:26;;;;;;;24.75;11.65;;;;;;;;;;5032407;28;20033;-69
2024/01/01 04:44:12;;;;;;;30.05;13.60;;;;;;;;;;5017225;28;20629;-69
2024/01/01 04:46:58;;;;;;;29.38;11.07;;;;;;;;;;5032632;28;20021;-69
2024/01/01 04:49:43;;;;;;;26.60;10.73;;;;;;;;;;5017824;28;20423;-69
2024/01/01 04:52:29;;;;;;;28.92;11.80;;;;;;;;;;5031660;28;20044;-68
2024/01/01 04:55:14;;;;;;;29.25;11.88;;;;;;;;;;5031583;28;20132;-68
2024/01/01 04:58:00;;;;;;;30.25;11.13;;;;;;;;;;5033163;28;20057;-69
2024/01/01 05:00:46;;;;;;;25.83;11.02;;;;;;;;;;5033168;28;20018;-69
2024/01/01 05:03:32;;;;;;;25.58;11.73;;;;;;;;;;5032319;28;20450;-69
2024/01/01 05:06:18;;;;;;;25.85;10.05;;;;;;;;;;5033177;28;20053;-69
2024/01/01 05:09:04;;;;;;;22.35;10.35;;;;;;;;;;5031008;28;20036;-69
2024/01/01 05:11:50;;;;;;;25.27;11.18;;;;;;;;;;5030133;28;20052;-68
2024/01/01 05:14:38;;;;;;;21.83;9.63;;;;;;;;;;5030093;28;20037;-69
2024/01/01 05:17:24;;;;;;;24.75;9.95;;;;;;;;;;5032400;28;20057;-69
2024/01/01 05:20:10;;;;;;;23.65;10.10;;;;;;;;;;5017285;28;20490;-69
2024/01/01 05:22:55;;;;;;;27.40;10.60;;;;;;;;;;5032401;28;20033;-69
2024/01/01 05:25:41;;;;;;;28.45;8.88;;;;;;;;;;5021084;28;20454;-69
2024/01/01 05:28:27;;;;;;;23.75;9.43;;;;;;;;;;5036076;28;20390;-69
2024/01/01 05:31:18;;;;;;;23.67;9.95;;;;;;;;;;5034794;28;20036;-68
2024/01/01 05:34:05;;;;;;;23.13;9.10;;;;;;;;;;5020982;28;20104;-69
2024/01/01 05:36:50;;;;;;;19.80;9.18;;;;;;;;;;5034262;28;20033;-69
2024/01/01 05:39:36;;;;;;;27.50;8.50;;;;;;;;;;5035301;28;20022;-69
2024/01/01 05:42:21;;;;;;;20.83;9.02;;;;;;;;;;5034577;28;20033;-69
2024/01/01 05:45:07;;;;;;;20.27;9.02;;;;;;;;;;5036133;28;20434;-69
2024/01/01 05:47:53;;;;;;;19.10;8.48;;;;;;;;;;5033764;28;20025;-69
2024/01/01 05:50:39;;;;;;;15.40;7.88;;;;;;;;;;5035119;28;20021;-69
2024/01/01 05:53:24;;;;;;;20.13;7.88;;;;;;;;;;5034133;28;20104;-68
2024/01/01 05:56:10;;;;;;;16.85;8.02;;;;;;;;;;5035525;28;20502;-69
2024/01/01 05:58:55;;;;;;;20.52;6.60;;;;;;;;;;5035466;28;20438;-69
2024/01/01 06:01:41;;;;;;;16.02;7.90;;;;;;;;;;5035547;28;20077;-69
2024/01/01 06:04:27;;;;;;;20.58;8.27;;;;;;;;;;5034277;28;20022;-69
2024/01/01 06:07:12;;;;;;;21.67;8.75;;;;;;;;;;5035051;28;20026;-69
2024/01/01 06:09:58;;;;;;;26.35;7.55;;;;;;;;;;5034780;28;20025;-69
2024/01/01 06:12:43;;;;;;;14.43;6.13;;;;;;;;;;5033899;28;20376;-69
2024/01/01 06:15:29;;;;;;;14.68;7.25;;;;;;;;;;5020393;28;20057;-69
2024/01/01 06:18:15;;;;;;;16.08;8.70;;;;;;;;;;5033734;28;20064;-69
2024/01/01 06:21:00;;;;;;;14.82;7.15;;;;;;;;;;5033430;28;20031;-69
2024/01/01 06:23:46;;;;;;;15.73;7.28;;;;;;;;;;5019759;28;20021;-69
2024/01/01 06:26:32;;;;;;;19.45;7.72;;;;;;;;;;5035511;28;20017;-69
2024/01/01 06:29:18;;;;;;;17.90;6.68;;;;;;;;;;5034916;28;20017;-69
2024/01/01 06:32:04;;;;;;;17.23;7.00;;;;;;;;;;5034651;28;20025;-69
2024/01/01 06:34:49;;;;;;;18.58;7.78;;;;;;;;;;5019311;28;20450;-69
2024/01/01 06:37:35;;;;;;;18.10;6.70;;;;;;;;;;5033636;28;20022;-69
2024/01/01 06:40:20;;;;;;;17.70;8.32;;;;;;;;;;5033315;28;20049;-69
2024/01/01 06:43:06;;;;;;;20.15;8.82;;;;;;;;;;5033150;28;20048;-69
2024/01/01 06:45:52;;;;;;;22.55;9.55;;;;;;;;;;5033122;28;20029;-69
2024/01/01 06:48:37;;;;;;;22.52;9.27;;;;;;;;;;5033746;28;20061;-69
2024/01/01 06:51:23;;;;;;;16.27;7.93;;;;;;;;;;5033697;28;20418;-69
2024/01/01 06:54:08;;;;;;;17.98;7.82;;;;;;;;;;5033373;28;20088;-69
2024/01/01 06:56:54;;;;;;;21.27;8.55;;;;;;;;;;5032197;28;20160;-69
2024/01/01 06:59:40;;;;;;;20.27;10.23;;;;;;;;;;5013636;28;20022;-69
2024/01/01 07:02:25;;;;;;;18.75;9.02;;;;;;;;;;5013801;28;20056;-69
2024/01/01 07:05:11;;;;;;;22.40;9.68;;;;;;;;;;5002445;28;20029;-68
2024/01/01 07:07:57;;;;;;;21.13;8.85;;;;;;;;;;5031947;28;20021;-69
2024/01/01 07:10:42;;;;;;;19.80;9.50;;;;;;;;;;5032521;28;20104;-68
2024/01/01 07:13:28;;;;;;;22.92;9.73;;;;;;;;;;5019462;28;20405;-69
2024/01/01 07:16:14;;;;;;;20.63;10.20;;;;;;;;;;5033207;28;20052;-69
2024/01/01 07:18:59;;;;;;;22.80;9.15;;;;;;;;;;5033440;28;20036;-69
2024/01/01 07:21:46;;;;;;;22.52;9.40;;;;;;;;;;5032937;28;20025;-68
2024/01/01 07:24:32;;;;;;;27.88;10.77;;;;;;;;;;5031684;28;20402;-69
2024/01/01 07:27:18;;;;;;;21.55;9.38;;;;;;;;;;5033318;28;20064;-69
2024/01/01 07:30:04;;;;;;;15.55;8.25;;;;;;;;;;5032430;28;20037;-69
2024/01/01 07:32:49;;;;;;;27.05;9.95;;;;;;;;;;5018136;28;20029;-68
2024/01/01 07:35:35;;;;;;;27.33;11.98;;;;;;;;;;5032616;28;20021;-68
2024/01/01 07:38:21;;;;;;;21.27;12.32;;;;;;;;;;5031911;28;20499;-69
2024/01/01 07:41:06;;;;;;;28.65;11.82;;;;;;;;;;5032158;28;20493;-69
2024/01/01 07:43:52;;;;;;;28.02;11.77;;;;;;;;;;5033463;28;20052;-69
2024/01/01 07:46:37;;;;;;;31.42;13.38;;;;;;;;;;5032807;28;20013;-69
2024/01/01 07:49:23;;;;;;;32.38;12.98;;;;;;;;;;5033404;28;20061;-69
2024/01/01 07:52:09;;;;;;;31.58;14.27;;;;;;;;;;5032819;28;20021;-69
2024/01/01 07:54:57;;;;;;;33.85;15.80;;;;;;;;;;5033497;28;20033;-69
2024/01/01 07:57:46;;;;;;;32.00;15.25;;;;;;;;;;5032714;28;20029;-69
2024/01/01 08:00:32;;;;;;;35.08;14.50;;;;;;;;;;5033103;28;20053;-69
2024/01/01 08:03:20;;;;;;;33.33;14.25;;;;;;;;;;5033830;28;20021;-69
2024/01/01 08:06:05;;;;;;;35.22;15.88;;;;;;;;;;5033742;28;20053;-69
2024/01/01 08:08:51;;;;;;;36.85;14.82;;;;;;;;;;5033943;28;20406;-69
2024/01/01 08:11:37;;;;;;;42.67;16.40;;;;;;;;;;5031988;28;20407;-69
2024/01/01 08:14:22;;;;;;;32.97;15.43;;;;;;;;;;5017883;28;20022;-69
2024/01/01 08:17:08;;;;;;;41.78;15.85;;;;;;;;;;5032411;28;20025;-69
2024/01/01 08:19:54;;;;;;;36.25;15.88;;;;;;;;;;5019465;28;20017;-69
2024/01/01 08:22:39;;;;;;;30.63;14.38;;;;;;;;;;5033351;28;20021;-69
2024/01/01 08:25:25;;;;;;;42.03;14.77;;;;;;;;;;5031993;28;20025;-69
2024/01/01 08:28:11;;;;;;;43.75;18.20;;;;;;;;;;5031942;28;20025;-69
2024/01/01 08:30:56;;;;;;;45.95;16.83;;;;;;;;;;5032941;28;20026;-69
2024/01/01 08:33:42;;;;;;;40.20;16.33;;;;;;;;;;5017855;28;20033;-69
2024/01/01 08:36:27;;;;;;;35.03;16.70;;;;;;;;;;5031226;28;20030;-69
2024/01/01 08:39:13;;;;;;;42.38;16.00;;;;;;;;;;5032400;28;20033;-69
2024/01/01 08:41:59;;;;;;;42.15;17.80;;;;;;;;;;5018207;28;20104;-69
2024/01/01 08:44:44;;;;;;;35.85;16.95;;;;;;;;;;5030944;28;20021;-69
2024/01/01 08:47:30;;;;;;;33.20;15.68;;;;;;;;;;5032592;28;20033;-69
2024/01/01 08:50:16;;;;;;;34.00;15.57;;;;;;;;;;5032476;28;20125;-69
2024/01/01 08:53:01;;;;;;;28.40;15.48;;;;;;;;;;5032147;28;20057;-69
2024/01/01 08:55:47;;;;;;;39.60;15.65;;;;;;;;;;5031231;28;20034;-69
2024/01/01 08:58:33;;;;;;;33.47;12.85;;;;;;;;;;5018491;28;20025;-69
2024/01/01 09:01:19;;;;;;;23.10;11.07;;;;;;;;;;5036529;28;20471;-69
2024/01/01 09:04:04;;;;;;;28.92;11.98;;;;;;;;;;5022657;28;20021;-69
2024/01/01 09:06:50;;;;;;;23.38;10.25;;;;;;;;;;5032576;28;20088;-69
2024/01/01 09:09:37;;;;;;;18.63;7.88;;;;;;;;;;5034726;28;20506;-69
2024/01/01 09:12:22;;;;;;;19.30;8.32;;;;;;;;;;5027558;28;20029;-69
2024/01/01 09:15:08;;;;;;;18.73;7.55;;;;;;;;;;5034599;28;20021;-69
2024/01/01 09:17:54;;;;;;;19.73;8.10;;;;;;;;;;5035373;28;20518;-69
2024/01/01 09:20:41;;;;;;;14.98;6.88;;;;;;;;;;5033995;28;20025;-69
2024/01/01 09:23:27;;;;;;;11.43;5.90;;;;;;;;;;5034918;28;20026;-69
2024/01/01 09:26:14;;;;;;;12.15;5.82;;;;;;;;;;5035881;28;20064;-69
2024/01/01 09:29:00;;;;;;;9.52;4.38;;;;;;;;;;5035696;28;20039;-69
2024/01/01 09:31:46;;;;;;;16.20;5.53;;;;;;;;;;5035808;28;20582;-68
2024/01/01 09:34:31;;;;;;;8.40;4.43;;;;;;;;;;5034575;28;20032;-69
2024/01/01 09:37:17;;;;;;;9.02;4.25;;;;;;;;;;5022841;28;20049;-69
2024/01/01 09:40:03;;;;;;;9.70;4.90;;;;;;;;;;5033176;28;20025;-69
2024/01/01 09:42:50;;;;;;;6.55;3.80;;;;;;;;;;5001189;28;20018;-69
2024/01/01 09:45:37;;;;;;;6.05;3.33;;;;;;;;;;5017327;28;20025;-68
2024/01/01 09:48:23;;;;;;;8.85;3.30;;;;;;;;;;5015868;28;20025;-68
2024/01/01 09:51:08;;;;;;;11.73;4.72;;;;;;;;;;5035255;28;20018;-69
2024/01/01 09:53:54;;;;;;;7.78;3.42;;;;;;;;;;5033788;28;20053;-70
2024/01/01 09:56:40;;;;;;;5.13;2.80;;;;;;;;;;5033277;28;20414;-70
2024/01/01 09:59:39;;;;;;;6.28;2.70;;;;;;;;;;5031481;28;20029;-69
2024/01/01 10:02:26;;;;;;;12.27;3.30;;;;;;;;;;5031125;28;20064;-70
2024/01/01 10:05:13;;;;;;;7.72;3.13;;;;;;;;;;5033462;28;20030;-70
2024/01/01 10:08:12;;;;;;;9.05;3.47;;;;;;;;;;5034029;28;20026;-69
2024/01/01 10:10:58;;;;;;;6.55;2.90;;;;;;;;;;5015819;28;20025;-70
2024/01/01 10:13:43;;;;;;;5.38;2.45;;;;;;;;;;5032662;28;20037;-69
2024/01/01 10:16:30;;;;;;;7.97;3.08;;;;;;;;;;5033651;28;20045;-71
2024/01/01 10:19:16;;;;;;;6.18;3.05;;;;;;;;;;5032785;28;20052;-70
2024/01/01 10:22:13;;;;;;;6.22;3.15;;;;;;;;;;5014342;28;20018;-69
2024/01/01 10:25:12;;;;;;;4.03;2.90;;;;;;;;;;5033353;28;20495;-70
2024/01/01 10:27:58;;;;;;;7.45;3.42;;;;;;;;;;5004125;28;20056;-70
2024/01/01 10:30:47;;;;;;;4.60;3.60;;;;;;;;;;5025788;28;20033;-70
2024/01/01 10:33:33;;;;;;;7.28;3.42;;;;;;;;;;5016487;28;20554;-70
2024/01/01 10:36:19;;;;;;;4.03;2.50;;;;;;;;;;5014874;28;20443;-70
2024/01/01 10:39:05;;;;;;;9.15;2.88;;;;;;;;;;5015480;28;20099;-69
2024/01/01 10:41:51;;;;;;;9.68;3.08;;;;;;;;;;5031618;28;20017;-69
2024/01/01 10:44:38;;;;;;;5.25;3.15;;;;;;;;;;5031503;28;20040;-68
2024/01/01 10:47:25;;;;;;;7.32;3.17;;;;;;;;;;5029666;28;20021;-68
2024/01/01 10:50:21;;;;;;;4.78;3.40;;;;;;;;;;5018281;28;20498;-69
2024/01/01 10:53:18;;;;;;;9.68;2.97;;;;;;;;;;5031284;28;20124;-69
2024/01/01 10:56:10;;;;;;;4.60;2.70;;;;;;;;;;5004953;28;20100;-67
2024/01/01 10:59:02;;;;;;;5.78;3.28;;;;;;;;;;5030340;28;20056;-70
2024/01/01 11:01:51;;;;;;;7.43;3.55;;;;;;;;;;5031256;28;20033;-69
2024/01/01 11:04:37;;;;;;;7.18;3.47;;;;;;;;;;5017851;28;20032;-69
2024/01/01 11:07:51;;;;;;;5.30;2.92;;;;;;;;;;5028279;28;20029;-69
2024/01/01 11:10:42;;;;;;;5.45;3.45;;;;;;;;;;5032774;28;20076;-69
2024/01/01 11:13:28;;;;;;;13.70;3.25;;;;;;;;;;5015413;28;20477;-68
2024/01/01 11:16:13;;;;;;;9.75;3.65;;;;;;;;;;5031062;28;20034;-69
2024/01/01 11:19:01;;;;;;;10.57;3.80;;;;;;;;;;5028655;28;20438;-69
2024/01/01 11:21:47;;;;;;;5.78;3.13;;;;;;;;;;5030234;28;20613;-68
2024/01/01 11:24:42;;;;;;;5.90;3.08;;;;;;;;;;5028711;28;20036;-69
2024/01/01 11:27:31;;;;;;;4.90;2.33;;;;;;;;;;5030308;28;20454;-69
2024/01/01 11:30:17;;;;;;;7.82;3.15;;;;;;;;;;5031792;28;20031;-69
2024/01/01 11:33:03;;;;;;;5.18;3.05;;;;;;;;;;5031689;28;20025;-69
2024/01/01 11:35:48;;;;;;;10.50;3.42;;;;;;;;;;5030952;28;20032;-68
2024/01/01 11:38:34;;;;;;;10.25;3.53;;;;;;;;;;5031595;28;20088;-69
2024/01/01 11:41:27;;;;;;;6.32;3.55;;;;;;;;;;5030021;28;20601;-69
2024/01/01 11:44:14;;;;;;;6.93;3.45;;;;;;;;;;5011858;28;20037;-66
2024/01/01 11:47:00;;;;;;;7.20;3.58;;;;;;;;;;5012445;28;20021;-66
2024/01/01 11:49:53;;;;;;;8.13;3.05;;;;;;;;;;5030245;28;20490;-69
2024/01/01 11:52:40;;;;;;;7.88;3.70;;;;;;;;;;5029513;28;20495;-69
2024/01/01 11:55:26;;;;;;;8.75;3.58;;;;;;;;;;5029308;28;20116;-69
2024/01/01 11:58:12;;;;;;;6.55;2.45;;;;;;;;;;5029941;28;20064;-69
2024/01/01 12:00:57;;;;;;;4.93;2.42;;;;;;;;;;5014454;28;20026;-69
2024/01/01 12:03:43;;;;;;;6.43;2.80;;;;;;;;;;5031024;28;20025;-70
2024/01/01 12:06:29;;;;;;;2.88;2.38;;;;;;;;;;5026916;28;20021;-70
2024/01/01 12:09:15;;;;;;;16.00;2.47;;;;;;;;;;5030548;28;20486;-70
2024/01/01 12:12:12;;;;;;;5.05;2.25;;;;;;;;;;5029387;28;20033;-70
2024/01/01 12:15:11;;;;;;;8.48;2.72;;;;;;;;;;5015870;28;20026;-70
2024/01/01 12:17:57;;;;;;;11.75;2.47;;;;;;;;;;5031030;28;20052;-71
2024/01/01 12:20:42;;;;;;;6.35;2.63;;;;;;;;;;5028104;28;20088;-70
2024/01/01 12:23:28;;;;;;;3.90;2.60;;;;;;;;;;5031544;28;20079;-70
2024/01/01 12:26:20;;;;;;;12.55;3.15;;;;;;;;;;5030572;28;20497;-69
2024/01/01 12:29:16;;;;;;;7.07;2.80;;;;;;;;;;5016510;28;20028;-70
2024/01/01 12:32:01;;;;;;;9.48;2.78;;;;;;;;;;5010049;28;20056;-70
2024/01/01 12:34:47;;;;;;;6.63;2.78;;;;;;;;;;5033236;28;20029;-70
2024/01/01 12:37:33;;;;;;;5.80;2.63;;;;;;;;;;5035515;28;20081;-70
2024/01/01 12:40:18;;;;;;;9.93;2.78;;;;;;;;;;5032990;28;20116;-70
2024/01/01 12:43:05;;;;;;;4.60;2.65;;;;;;;;;;5032605;28;20025;-70
2024/01/01 12:45:50;;;;;;;4.28;2.60;;;;;;;;;;5034347;28;20561;-69
2024/01/01 12:48:36;;;;;;;6.05;1.63;;;;;;;;;;5035400;28;20474;-69
2024/01/01 12:51:23;;;;;;;4.32;2.53;;;;;;;;;;5026752;28;20052;-69
2024/01/01 12:54:09;;;;;;;3.03;1.75;;;;;;;;;;5034809;28;20382;-69
2024/01/01 12:56:57;;;;;;;10.90;2.45;;;;;;;;;;5035393;28;20029;-69
2024/01/01 12:59:43;;;;;;;3.50;2.50;;;;;;;;;;5020126;28;20108;-70
2024/01/01 13:02:29;;;;;;;7.85;2.10;;;;;;;;;;5023741;28;20021;-68
2024/01/01 13:05:14;;;;;;;5.88;2.60;;;;;;;;;;5034944;28;20088;-69
2024/01/01 13:08:00;;;;;;;7.78;2.85;;;;;;;;;;5020291;28;20079;-69
2024/01/01 13:10:46;;;;;;;7.13;2.30;;;;;;;;;;5035189;28;20087;-70
2024/01/01 13:13:35;;;;;;;8.18;2.35;;;;;;;;;;5034436;28;20017;-69
2024/01/01 13:16:20;;;;;;;4.65;2.65;;;;;;;;;;5034215;28;20440;-69
2024/01/01 13:19:06;;;;;;;10.98;3.00;;;;;;;;;;5035219;28;20094;-69
2024/01/01 13:21:52;;;;;;;6.30;2.17;;;;;;;;;;5019264;28;20475;-69
2024/01/01 13:24:38;;;;;;;12.23;3.13;;;;;;;;;;5027718;28;20029;-69
2024/01/01 13:27:24;;;;;;;5.80;2.45;;;;;;;;;;5034207;28;20013;-69
2024/01/01 13:30:10;;;;;;;9.68;2.25;;;;;;;;;;5035927;28;20120;-69
2024/01/01 13:32:56;;;;;;;8.95;2.50;;;;;;;;;;5017395;28;20031;-69
2024/01/01 13:35:42;;;;;;;10.85;2.65;;;;;;;;;;5034933;28;20029;-69
2024/01/01 13:38:27;;;;;;;9.98;3.80;;;;;;;;;;5035481;28;20483;-69
2024/01/01 13:41:13;;;;;;;8.82;3.22;;;;;;;;;;5007193;28;20422;-69
2024/01/01 13:43:58;;;;;;;7.82;2.83;;;;;;;;;;5033786;28;20026;-69
2024/01/01 13:46:44;;;;;;;7.25;2.88;;;;;;;;;;5035087;28;20100;-69
2024/01/01 13:49:30;;;;;;;5.65;3.28;;;;;;;;;;5035144;28;20022;-69
2024/01/01 13:52:15;;;;;;;6.68;3.17;;;;;;;;;;5019736;28;20433;-69
2024/01/01 13:57:27;;;;;;;5.00;3.00;;;;;;;;;;5082116;22;20056;-71
2024/01/01 14:00:14;;;;;;;6.50;2.72;;;;;;;;;;5059976;28;20083;-71
2024/01/01 14:03:00;;;;;;;12.02;2.40;;;;;;;;;;5073524;28;20095;-71
2024/01/01 14:05:45;;;;;;;5.68;2.42;;;;;;;;;;5072592;28;20016;-71
2024/01/01 14:08:31;;;;;;;12.77;1.92;;;;;;;;;;5058100;28;20433;-71
2024/01/01 14:11:17;;;;;;;7.75;2.50;;;;;;;;;;5074882;28;20032;-72
2024/01/01 14:14:03;;;;;;;6.93;2.22;;;;;;;;;;5073376;28;20020;-71
2024/01/01 14:16:51;;;;;;;6.97;2.88;;;;;;;;;;5073698;28;20024;-71
2024/01/01 14:19:37;;;;;;;5.15;1.75;;;;;;;;;;5073260;28;20036;-71
2024/01/01 14:22:23;;;;;;;9.70;2.63;;;;;;;;;;5073447;28;20071;-72
2024/01/01 14:25:09;;;;;;;21.73;3.22;;;;;;;;;;5057958;28;20173;-71
2024/01/01 14:27:54;;;;;;;12.48;2.45;;;;;;;;;;5072915;28;20366;-71
2024/01/01 14:30:40;;;;;;;8.07;2.60;;;;;;;;;;5074817;28;20021;-71
2024/01/01 14:33:26;;;;;;;10.63;2.67;;;;;;;;;;5073436;28;20028;-71
2024/01/01 14:36:17;;;;;;;7.43;2.00;;;;;;;;;;5072551;28;20020;-71
2024/01/01 14:39:04;;;;;;;10.70;2.47;;;;;;;;;;5072228;28;20524;-71
2024/01/01 14:41:49;;;;;;;6.45;2.40;;;;;;;;;;5072587;28;20036;-71
2024/01/01 14:44:35;;;;;;;8.85;2.78;;;;;;;;;;5058759;28;20063;-71
2024/01/01 14:47:20;;;;;;;7.88;2.30;;;;;;;;;;5072781;28;20023;-71
2024/01/01 14:50:06;;;;;;;10.65;2.80;;;;;;;;;;5073284;28;20056;-72
2024/01/01 14:52:52;;;;;;;7.55;2.28;;;;;;;;;;5073143;28;20398;-72
2024/01/01 14:55:38;;;;;;;4.90;2.10;;;;;;;;;;5072555;28;20020;-72
2024/01/01 14:58:24;;;;;;;14.23;2.70;;;;;;;;;;5072314;28;20039;-72
2024/01/01 15:01:09;;;;;;;6.07;2.05;;;;;;;;;;5072947;28;20493;-72
2024/01/01 15:03:55;;;;;;;5.40;2.13;;;;;;;;;;5073265;28;20596;-72
2024/01/01 15:06:41;;;;;;;6.65;2.45;;;;;;;;;;5072862;28;20445;-72
2024/01/01 15:09:26;;;;;;;8.15;2.20;;;;;;;;;;5072817;28;20020;-72
2024/01/01 15:12:12;;;;;;;5.82;2.33;;;;;;;;;;5073933;28;20021;-72
2024/01/01 15:14:57;;;;;;;5.22;2.05;;;;;;;;;;5073219;28;20394;-72
2024/01/01 15:17:44;;;;;;;6.13;2.35;;;;;;;;;;5072989;28;20017;-72
2024/01/01 15:20:29;;;;;;;8.93;2.65;;;;;;;;;;5058762;28;20517;-72
2024/01/01 15:23:15;;;;;;;5.32;2.38;;;;;;;;;;5057492;28;20028;-72
2024/01/01 15:26:00;;;;;;;9.38;3.03;;;;;;;;;;5072780;28;20025;-72
2024/01/01 15:28:48;;;;;;;10.57;2.83;;;;;;;;;;5072891;28;20103;-72
2024/01/01 15:31:34;;;;;;;10.82;2.50;;;;;;;;;;5071994;28;20533;-72
2024/01/01 15:34:19;;;;;;;7.13;2.40;;;;;;;;;;5056574;28;20032;-72
2024/01/01 15:37:05;;;;;;;13.93;4.57;;;;;;;;;;5071905;28;20019;-72
2024/01/01 15:39:51;;;;;;;10.60;3.33;;;;;;;;;;5072513;28;20103;-72
2024/01/01 15:42:36;;;;;;;15.85;2.83;;;;;;;;;;5072725;28;20025;-71
2024/01/01 15:45:22;;;;;;;8.10;2.25;;;;;;;;;;5071950;28;20032;-72
2024/01/01 15:48:08;;;;;;;10.82;2.25;;;;;;;;;;5072375;28;20021;-72
2024/01/01 15:50:53;;;;;;;6.70;3.55;;;;;;;;;;5071408;28;20025;-72
2024/01/01 15:53:39;;;;;;;14.50;2.60;;;;;;;;;;5072545;28;20020;-72
2024/01/01 15:56:25;;;;;;;4.05;2.75;;;;;;;;;;5071249;28;20032;-72
2024/01/01 15:59:10;;;;;;;9.63;2.60;;;;;;;;;;5056383;28;20020;-72
2024/01/01 16:01:56;;;;;;;19.73;3.45;;;;;;;;;;5072199;28;20020;-72
2024/01/01 16:04:42;;;;;;;12.15;2.65;;;;;;;;;;5072367;28;20020;-72
2024/01/01 16:07:28;;;;;;;7.55;3.25;;;;;;;;;;5072574;28;20051;-72
2024/01/01 16:10:14;;;;;;;9.00;2.53;;;;;;;;;;5072232;28;20034;-72
2024/01/01 16:13:00;;;;;;;18.40;3.58;;;;;;;;;;5057734;28;20024;-72
2024/01/01 16:15:47;;;;;;;15.65;2.63;;;;;;;;;;5072137;28;20104;-72
2024/01/01 16:18:34;;;;;;;9.48;2.78;;;;;;;;;;5072331;28;20052;-72
2024/01/01 16:21:20;;;;;;;14.30;3.22;;;;;;;;;;5071813;28;20035;-72
2024/01/01 16:24:05;;;;;;;14.63;4.28;;;;;;;;;;5072468;28;20051;-72
2024/01/01 16:26:52;;;;;;;14.05;3.13;;;;;;;;;;5072008;28;20523;-72